sensor_id;sensor_type;location;lat;lon;timestamp;pressure;altitude;pressure_sealevel;temperature;humidity
83177;BME280;73074;52.006;4.704;2023-10-08T00:05:01;102364.56;;;17.80;81.76
83177;BME280;73074;52.006;4.704;2023-10-08T00:10:05;102380.84;;;17.77;81.56
83177;BME280;73074;52.006;4.704;2023-10-08T00:15:07;102368.56;;;17.71;81.40
83177;BME280;73074;52.006;4.704;2023-10-08T00:20:11;102377.75;;;17.65;81.44
83177;BME280;73074;52.006;4.704;2023-10-08T00:25:21;102371.66;;;17.62;81.43
83177;BME280;73074;52.006;4.704;2023-10-08T01:01:25;102340.41;;;17.59;81.23
83177;BME280;73074;52.006;4.704;2023-10-08T01:06:39;102348.47;;;17.59;80.97
83177;BME280;73074;52.006;4.704;2023-10-08T01:17:25;102357.81;;;17.52;81.31
83177;BME280;73074;52.006;4.704;2023-10-08T01:22:56;102360.50;;;17.52;81.57
83177;BME280;73074;52.006;4.704;2023-10-08T01:28:06;102352.34;;;17.54;81.55
83177;BME280;73074;52.006;4.704;2023-10-08T01:33:17;102346.19;;;17.52;81.53
83177;BME280;73074;52.006;4.704;2023-10-08T01:38:19;102359.91;;;17.46;81.25
83177;BME280;73074;52.006;4.704;2023-10-08T01:43:30;102351.03;;;17.43;81.39
83177;BME280;73074;52.006;4.704;2023-10-08T01:48:32;102367.25;;;17.42;81.70
83177;BME280;73074;52.006;4.704;2023-10-08T01:53:35;102370.00;;;17.40;82.06
83177;BME280;73074;52.006;4.704;2023-10-08T01:58:37;102390.56;;;17.41;82.11
83177;BME280;73074;52.006;4.704;2023-10-08T02:04:05;102410.38;;;17.39;82.07
83177;BME280;73074;52.006;4.704;2023-10-08T02:09:17;102388.03;;;17.38;82.26
83177;BME280;73074;52.006;4.704;2023-10-08T02:14:22;102403.03;;;17.42;82.01
83177;BME280;73074;52.006;4.704;2023-10-08T02:19:33;102390.31;;;17.46;82.27
83177;BME280;73074;52.006;4.704;2023-10-08T02:24:39;102387.47;;;17.49;82.60
83177;BME280;73074;52.006;4.704;2023-10-08T02:29:40;102375.75;;;17.52;82.95
83177;BME280;73074;52.006;4.704;2023-10-08T02:34:44;102376.63;;;17.52;82.78
83177;BME280;73074;52.006;4.704;2023-10-08T02:39:51;102389.25;;;17.50;82.63
83177;BME280;73074;52.006;4.704;2023-10-08T02:45:11;102400.13;;;17.47;83.25
83177;BME280;73074;52.006;4.704;2023-10-08T02:50:26;102397.44;;;17.47;82.87
83177;BME280;73074;52.006;4.704;2023-10-08T02:55:27;102393.16;;;17.43;82.77
83177;BME280;73074;52.006;4.704;2023-10-08T03:00:29;102392.38;;;17.41;82.95
83177;BME280;73074;52.006;4.704;2023-10-08T03:05:32;102399.97;;;17.31;82.88
83177;BME280;73074;52.006;4.704;2023-10-08T03:10:41;102404.34;;;17.34;83.30
83177;BME280;73074;52.006;4.704;2023-10-08T03:15:55;102383.72;;;17.34;83.66
83177;BME280;73074;52.006;4.704;2023-10-08T03:21:06;102377.91;;;17.25;83.14
83177;BME280;73074;52.006;4.704;2023-10-08T03:26:10;102389.94;;;17.16;83.43
83177;BME280;73074;52.006;4.704;2023-10-08T03:31:17;102389.31;;;17.11;83.45
83177;BME280;73074;52.006;4.704;2023-10-08T03:36:27;102406.63;;;17.04;83.71
83177;BME280;73074;52.006;4.704;2023-10-08T03:41:32;102429.03;;;17.03;84.04
83177;BME280;73074;52.006;4.704;2023-10-08T03:52:17;102436.78;;;17.10;84.37
83177;BME280;73074;52.006;4.704;2023-10-08T03:57:32;102444.94;;;17.07;84.61
83177;BME280;73074;52.006;4.704;2023-10-08T04:02:54;102436.78;;;17.10;85.55
83177;BME280;73074;52.006;4.704;2023-10-08T04:07:55;102457.50;;;17.07;84.83
83177;BME280;73074;52.006;4.704;2023-10-08T04:13:01;102478.19;;;17.05;84.86
83177;BME280;73074;52.006;4.704;2023-10-08T04:18:23;102466.50;;;17.06;85.47
83177;BME280;73074;52.006;4.704;2023-10-08T04:23:26;102467.66;;;17.00;85.08
83177;BME280;73074;52.006;4.704;2023-10-08T04:28:34;102474.09;;;16.96;85.66
83177;BME280;73074;52.006;4.704;2023-10-08T04:33:46;102481.34;;;16.94;85.81
83177;BME280;73074;52.006;4.704;2023-10-08T04:38:51;102475.84;;;16.97;85.82
83177;BME280;73074;52.006;4.704;2023-10-08T04:43:54;102461.00;;;16.89;85.51
83177;BME280;73074;52.006;4.704;2023-10-08T04:49:05;102482.63;;;16.86;85.57
83177;BME280;73074;52.006;4.704;2023-10-08T04:54:30;102467.53;;;16.83;86.07
83177;BME280;73074;52.006;4.704;2023-10-08T04:59:33;102476.25;;;16.88;86.44
83177;BME280;73074;52.006;4.704;2023-10-08T05:04:59;102468.78;;;16.74;85.77
83177;BME280;73074;52.006;4.704;2023-10-08T05:10:26;102495.91;;;16.67;85.94
83177;BME280;73074;52.006;4.704;2023-10-08T05:15:48;102486.69;;;16.52;86.26
83177;BME280;73074;52.006;4.704;2023-10-08T05:20:52;102484.59;;;16.38;85.89
83177;BME280;73074;52.006;4.704;2023-10-08T05:26:24;102490.28;;;16.31;86.09
83177;BME280;73074;52.006;4.704;2023-10-08T05:31:58;102507.75;;;16.19;85.67
83177;BME280;73074;52.006;4.704;2023-10-08T05:37:00;102499.94;;;16.13;85.56
83177;BME280;73074;52.006;4.704;2023-10-08T05:42:10;102490.16;;;16.12;85.39
83177;BME280;73074;52.006;4.704;2023-10-08T05:47:21;102475.94;;;16.10;85.48
83177;BME280;73074;52.006;4.704;2023-10-08T05:52:28;102495.50;;;16.12;85.38
83177;BME280;73074;52.006;4.704;2023-10-08T05:58:07;102501.63;;;16.15;85.14
83177;BME280;73074;52.006;4.704;2023-10-08T06:03:20;102495.84;;;16.04;85.24
83177;BME280;73074;52.006;4.704;2023-10-08T06:08:59;102514.81;;;15.98;85.02
83177;BME280;73074;52.006;4.704;2023-10-08T06:14:23;102521.53;;;15.86;85.36
83177;BME280;73074;52.006;4.704;2023-10-08T06:19:27;102537.81;;;15.82;85.75
83177;BME280;73074;52.006;4.704;2023-10-08T06:31:02;102549.56;;;15.78;86.04
83177;BME280;73074;52.006;4.704;2023-10-08T06:36:48;102561.97;;;15.80;86.45
83177;BME280;73074;52.006;4.704;2023-10-08T06:47:44;102555.50;;;15.62;85.81
83177;BME280;73074;52.006;4.704;2023-10-08T06:52:49;102562.56;;;15.65;84.83
83177;BME280;73074;52.006;4.704;2023-10-08T06:57:50;102577.69;;;15.66;84.69
83177;BME280;73074;52.006;4.704;2023-10-08T07:03:13;102571.34;;;15.69;84.31
83177;BME280;73074;52.006;4.704;2023-10-08T07:08:51;102583.81;;;15.70;83.61
83177;BME280;73074;52.006;4.704;2023-10-08T07:13:55;102591.31;;;15.60;83.67
83177;BME280;73074;52.006;4.704;2023-10-08T07:19:12;102591.69;;;15.49;83.25
83177;BME280;73074;52.006;4.704;2023-10-08T07:25:08;102602.34;;;15.51;83.54
83177;BME280;73074;52.006;4.704;2023-10-08T07:30:32;102615.75;;;15.51;83.23
83177;BME280;73074;52.006;4.704;2023-10-08T07:36:01;102619.53;;;15.44;83.61
83177;BME280;73074;52.006;4.704;2023-10-08T07:41:23;102622.34;;;15.41;83.75
83177;BME280;73074;52.006;4.704;2023-10-08T07:46:33;102627.88;;;15.36;84.03
83177;BME280;73074;52.006;4.704;2023-10-08T07:51:42;102639.28;;;15.41;83.86
83177;BME280;73074;52.006;4.704;2023-10-08T07:56:53;102638.34;;;15.42;83.95
83177;BME280;73074;52.006;4.704;2023-10-08T08:01:56;102646.88;;;15.53;84.21
83177;BME280;73074;52.006;4.704;2023-10-08T08:13:13;102651.97;;;15.62;83.32
83177;BME280;73074;52.006;4.704;2023-10-08T08:18:23;102657.22;;;15.65;83.38
83177;BME280;73074;52.006;4.704;2023-10-08T08:23:36;102665.06;;;15.70;82.61
83177;BME280;73074;52.006;4.704;2023-10-08T08:28:50;102674.03;;;15.69;82.53
83177;BME280;73074;52.006;4.704;2023-10-08T08:33:51;102688.25;;;15.71;81.39
83177;BME280;73074;52.006;4.704;2023-10-08T08:38:57;102696.13;;;15.76;81.27
83177;BME280;73074;52.006;4.704;2023-10-08T08:44:21;102687.06;;;15.80;80.74
83177;BME280;73074;52.006;4.704;2023-10-08T08:49:29;102692.31;;;15.83;80.91
83177;BME280;73074;52.006;4.704;2023-10-08T08:54:53;102691.19;;;15.90;80.56
83177;BME280;73074;52.006;4.704;2023-10-08T09:00:05;102685.31;;;16.04;79.42
83177;BME280;73074;52.006;4.704;2023-10-08T09:05:11;102689.69;;;16.06;79.91
83177;BME280;73074;52.006;4.704;2023-10-08T09:10:25;102678.78;;;16.11;79.33
83177;BME280;73074;52.006;4.704;2023-10-08T09:15:33;102684.56;;;16.23;78.09
83177;BME280;73074;52.006;4.704;2023-10-08T09:21:35;102689.75;;;16.28;78.17
83177;BME280;73074;52.006;4.704;2023-10-08T09:26:31;102680.41;;;16.38;78.45
83177;BME280;73074;52.006;4.704;2023-10-08T09:31:56;102667.34;;;16.52;77.37
83177;BME280;73074;52.006;4.704;2023-10-08T09:37:08;102673.38;;;16.59;77.07
83177;BME280;73074;52.006;4.704;2023-10-08T09:47:52;102684.97;;;16.60;76.65
83177;BME280;73074;52.006;4.704;2023-10-08T09:53:12;102669.53;;;16.65;76.35
83177;BME280;73074;52.006;4.704;2023-10-08T09:58:34;102668.88;;;16.83;77.26
83177;BME280;73074;52.006;4.704;2023-10-08T10:16:00;102689.63;;;17.22;75.58
83177;BME280;73074;52.006;4.704;2023-10-08T10:26:36;102698.44;;;17.03;75.07
83177;BME280;73074;52.006;4.704;2023-10-08T10:37:51;102707.34;;;16.82;76.17
83177;BME280;73074;52.006;4.704;2023-10-08T10:42:58;102712.13;;;16.97;75.95
83177;BME280;73074;52.006;4.704;2023-10-08T10:48:03;102705.81;;;17.20;75.84
83177;BME280;73074;52.006;4.704;2023-10-08T10:53:10;102696.72;;;17.24;74.33
83177;BME280;73074;52.006;4.704;2023-10-08T10:58:11;102695.13;;;17.40;75.24
83177;BME280;73074;52.006;4.704;2023-10-08T11:03:14;102693.97;;;17.46;74.00
83177;BME280;73074;52.006;4.704;2023-10-08T11:08:30;102689.09;;;17.56;73.65
83177;BME280;73074;52.006;4.704;2023-10-08T11:13:46;102683.41;;;17.84;74.14
83177;BME280;73074;52.006;4.704;2023-10-08T11:18:54;102663.88;;;18.19;72.42
83177;BME280;73074;52.006;4.704;2023-10-08T11:23:56;102672.16;;;18.52;72.18
83177;BME280;73074;52.006;4.704;2023-10-08T11:29:07;102679.53;;;18.68;71.99
83177;BME280;73074;52.006;4.704;2023-10-08T11:34:14;102672.97;;;18.92;71.72
83177;BME280;73074;52.006;4.704;2023-10-08T11:39:22;102670.47;;;19.06;69.30
83177;BME280;73074;52.006;4.704;2023-10-08T11:44:31;102671.84;;;19.15;70.73
83177;BME280;73074;52.006;4.704;2023-10-08T11:49:43;102661.50;;;19.06;70.04
83177;BME280;73074;52.006;4.704;2023-10-08T11:54:51;102671.69;;;19.35;70.49
83177;BME280;73074;52.006;4.704;2023-10-08T11:59:58;102667.25;;;19.34;69.46
83177;BME280;73074;52.006;4.704;2023-10-08T12:05:06;102657.91;;;19.41;68.72
83177;BME280;73074;52.006;4.704;2023-10-08T12:10:19;102636.78;;;19.49;67.64
83177;BME280;73074;52.006;4.704;2023-10-08T12:15:41;102644.06;;;19.66;68.47
83177;BME280;73074;52.006;4.704;2023-10-08T12:20:53;102626.13;;;19.65;67.71
83177;BME280;73074;52.006;4.704;2023-10-08T12:26:10;102616.66;;;19.22;68.78
83177;BME280;73074;52.006;4.704;2023-10-08T12:31:18;102604.47;;;19.32;69.06
83177;BME280;73074;52.006;4.704;2023-10-08T12:36:28;102602.09;;;19.43;68.43
83177;BME280;73074;52.006;4.704;2023-10-08T12:41:34;102596.94;;;19.39;68.69
83177;BME280;73074;52.006;4.704;2023-10-08T12:46:51;102600.66;;;19.19;69.15
83177;BME280;73074;52.006;4.704;2023-10-08T12:52:07;102588.47;;;19.12;69.68
83177;BME280;73074;52.006;4.704;2023-10-08T12:57:35;102572.91;;;19.17;70.02
83177;BME280;73074;52.006;4.704;2023-10-08T13:02:38;102563.59;;;19.24;69.48
83177;BME280;73074;52.006;4.704;2023-10-08T13:07:41;102568.41;;;19.17;69.41
83177;BME280;73074;52.006;4.704;2023-10-08T13:13:12;102558.91;;;19.10;69.56
83177;BME280;73074;52.006;4.704;2023-10-08T13:18:50;102564.94;;;18.98;70.44
83177;BME280;73074;52.006;4.704;2023-10-08T13:24:13;102561.28;;;18.99;70.72
83177;BME280;73074;52.006;4.704;2023-10-08T13:30:05;102558.41;;;19.19;69.89
83177;BME280;73074;52.006;4.704;2023-10-08T13:35:21;102551.06;;;19.23;70.04
83177;BME280;73074;52.006;4.704;2023-10-08T13:40:42;102556.28;;;19.26;69.92
83177;BME280;73074;52.006;4.704;2023-10-08T13:45:50;102539.25;;;19.26;69.91
83177;BME280;73074;52.006;4.704;2023-10-08T13:50:58;102548.56;;;19.36;70.05
83177;BME280;73074;52.006;4.704;2023-10-08T14:07:56;102546.09;;;19.48;70.19
83177;BME280;73074;52.006;4.704;2023-10-08T14:13:10;102535.56;;;19.44;69.46
83177;BME280;73074;52.006;4.704;2023-10-08T14:18:45;102530.91;;;19.30;69.70
83177;BME280;73074;52.006;4.704;2023-10-08T14:24:24;102527.13;;;19.17;70.30
83177;BME280;73074;52.006;4.704;2023-10-08T14:29:50;102520.50;;;19.23;69.54
83177;BME280;73074;52.006;4.704;2023-10-08T14:35:28;102512.63;;;19.02;70.49
83177;BME280;73074;52.006;4.704;2023-10-08T14:40:45;102499.31;;;18.99;70.56
83177;BME280;73074;52.006;4.704;2023-10-08T15:10:30;102481.91;;;19.22;69.75
83177;BME280;73074;52.006;4.704;2023-10-08T15:40:47;102463.72;;;18.58;72.19
83177;BME280;73074;52.006;4.704;2023-10-08T15:52:48;102461.94;;;18.40;72.72
83177;BME280;73074;52.006;4.704;2023-10-08T15:58:36;102458.06;;;18.28;73.83
83177;BME280;73074;52.006;4.704;2023-10-08T16:34:25;102430.31;;;17.72;75.62
83177;BME280;73074;52.006;4.704;2023-10-08T16:46:23;102417.13;;;17.48;76.32
83177;BME280;73074;52.006;4.704;2023-10-08T16:51:55;102417.66;;;17.37;77.19
83177;BME280;73074;52.006;4.704;2023-10-08T17:03:22;102414.28;;;17.13;77.74
83177;BME280;73074;52.006;4.704;2023-10-08T17:09:03;102409.59;;;16.98;78.92
83177;BME280;73074;52.006;4.704;2023-10-08T17:15:29;102406.44;;;16.88;78.41
83177;BME280;73074;52.006;4.704;2023-10-08T17:21:19;102408.72;;;16.77;77.99
83177;BME280;73074;52.006;4.704;2023-10-08T17:26:49;102408.94;;;16.72;78.82
83177;BME280;73074;52.006;4.704;2023-10-08T18:14:42;102341.28;;;16.03;81.42
83177;BME280;73074;52.006;4.704;2023-10-08T18:49:58;102360.59;;;15.68;82.94
83177;BME280;73074;52.006;4.704;2023-10-08T19:01:24;102344.94;;;15.57;82.89
83177;BME280;73074;52.006;4.704;2023-10-08T19:07:15;102333.41;;;15.55;82.43
83177;BME280;73074;52.006;4.704;2023-10-08T19:19:05;102288.78;;;15.32;83.73
83177;BME280;73074;52.006;4.704;2023-10-08T19:24:52;102278.47;;;15.23;84.16
83177;BME280;73074;52.006;4.704;2023-10-08T19:36:53;102269.78;;;15.16;84.40
83177;BME280;73074;52.006;4.704;2023-10-08T20:12:21;102269.47;;;14.78;84.95
83177;BME280;73074;52.006;4.704;2023-10-08T20:18:08;102253.59;;;14.74;85.10
83177;BME280;73074;52.006;4.704;2023-10-08T20:36:25;102223.72;;;14.63;86.21
83177;BME280;73074;52.006;4.704;2023-10-08T21:19:03;102206.94;;;14.34;86.40
83177;BME280;73074;52.006;4.704;2023-10-08T21:49:01;102189.69;;;14.43;86.75
83177;BME280;73074;52.006;4.704;2023-10-08T22:06:10;102172.78;;;14.41;86.78
83177;BME280;73074;52.006;4.704;2023-10-08T22:11:35;102177.41;;;14.37;87.20
83177;BME280;73074;52.006;4.704;2023-10-08T22:17:37;102165.03;;;14.35;87.24
83177;BME280;73074;52.006;4.704;2023-10-08T22:34:43;102169.88;;;14.48;86.47
83177;BME280;73074;52.006;4.704;2023-10-08T22:52:26;102175.22;;;14.72;86.72
83177;BME280;73074;52.006;4.704;2023-10-08T22:58:03;102153.63;;;14.76;86.96
83177;BME280;73074;52.006;4.704;2023-10-08T23:03:30;102148.53;;;14.70;86.96
83177;BME280;73074;52.006;4.704;2023-10-08T23:08:49;102133.41;;;14.69;86.48
83177;BME280;73074;52.006;4.704;2023-10-08T23:14:33;102128.22;;;14.65;86.11
83177;BME280;73074;52.006;4.704;2023-10-08T23:20:10;102126.81;;;14.56;85.91
83177;BME280;73074;52.006;4.704;2023-10-08T23:25:25;102123.47;;;14.49;86.42
83177;BME280;73074;52.006;4.704;2023-10-08T23:30:54;102107.56;;;14.46;86.47
83177;BME280;73074;52.006;4.704;2023-10-08T23:36:16;102097.81;;;14.45;86.29
